Time;durP1;ratioP1;P1;durP2;ratioP2;P2;SDS_P1;SDS_P2;PMS_P1;PMS_P2;Temp;Humidity;BMP_temperature;BMP_pressure;BME280_temperature;BME280_humidity;BME280_pressure;Samples;Min_cycle;Max_cycle;Signal;HPM_P1;HPM_P2
2022/07/31 00:00:05;;;;;;;6.93;5.60;;;;;;;;;;5011840;28;20443;-74
2022/07/31 00:02:32;;;;;;;6.03;5.47;;;;;;;;;;5011439;28;20509;-75
2022/07/31 00:05:00;;;;;;;5.60;5.20;;;;;;;;;;5011637;28;20889;-76
2022/07/31 00:07:27;;;;;;;5.20;4.80;;;;;;;;;;5011732;28;20505;-76
2022/07/31 00:09:55;;;;;;;5.63;5.10;;;;;;;;;;5011620;28;20549;-75
2022/07/31 00:12:22;;;;;;;6.17;5.40;;;;;;;;;;5011689;28;20998;-76
2022/07/31 00:14:49;;;;;;;5.33;4.93;;;;;;;;;;5011079;28;20479;-75
2022/07/31 00:17:16;;;;;;;5.40;4.93;;;;;;;;;;5011897;28;20506;-75
2022/07/31 00:19:43;;;;;;;5.50;4.83;;;;;;;;;;5011973;28;20439;-75
2022/07/31 00:22:12;;;;;;;5.70;5.20;;;;;;;;;;5012023;28;20512;-76
2022/07/31 00:24:39;;;;;;;6.60;5.27;;;;;;;;;;5011280;28;21236;-75
2022/07/31 00:27:06;;;;;;;5.90;5.40;;;;;;;;;;5011939;28;20489;-75
2022/07/31 00:29:33;;;;;;;6.03;5.07;;;;;;;;;;5011302;28;20512;-75
2022/07/31 00:32:00;;;;;;;7.33;5.70;;;;;;;;;;5011891;28;20860;-75
2022/07/31 00:34:27;;;;;;;6.33;5.83;;;;;;;;;;5011398;28;20463;-75
2022/07/31 00:36:54;;;;;;;6.10;5.50;;;;;;;;;;5011494;28;20517;-76
2022/07/31 00:39:23;;;;;;;5.43;5.03;;;;;;;;;;5011912;28;20452;-75
2022/07/31 00:41:50;;;;;;;6.10;5.70;;;;;;;;;;5011447;28;20898;-75
2022/07/31 00:44:17;;;;;;;6.07;5.50;;;;;;;;;;5011311;28;20529;-76
2022/07/31 00:46:44;;;;;;;6.27;5.77;;;;;;;;;;5011322;28;20454;-75
2022/07/31 00:49:12;;;;;;;6.10;5.70;;;;;;;;;;5011078;28;20447;-75
2022/07/31 00:51:39;;;;;;;6.40;5.90;;;;;;;;;;5011060;28;20447;-76
2022/07/31 00:54:06;;;;;;;6.57;6.00;;;;;;;;;;5010961;28;20521;-75
2022/07/31 00:56:35;;;;;;;6.30;5.70;;;;;;;;;;5010939;28;20443;-75
2022/07/31 00:59:02;;;;;;;7.80;6.27;;;;;;;;;;5010752;28;20498;-74
2022/07/31 01:01:29;;;;;;;7.57;6.50;;;;;;;;;;5009052;28;20510;-75
2022/07/31 01:03:56;;;;;;;6.93;6.43;;;;;;;;;;5010952;28;20491;-76
2022/07/31 01:06:23;;;;;;;6.63;6.20;;;;;;;;;;5014614;28;20810;-77
2022/07/31 01:08:50;;;;;;;6.80;6.20;;;;;;;;;;5013885;28;20447;-75
2022/07/31 01:11:19;;;;;;;7.23;6.63;;;;;;;;;;4993224;28;20480;-75
2022/07/31 01:13:51;;;;;;;7.60;7.00;;;;;;;;;;4998088;28;20480;-74
2022/07/31 01:16:19;;;;;;;7.60;6.90;;;;;;;;;;5005272;28;20929;-75
2022/07/31 01:18:47;;;;;;;7.73;7.03;;;;;;;;;;5005376;28;20444;-75
2022/07/31 01:21:27;;;;;;;6.70;6.20;;;;;;;;;;4995161;28;20857;-76
2022/07/31 01:24:08;;;;;;;7.43;6.93;;;;;;;;;;4997058;28;20459;-75
2022/07/31 01:26:41;;;;;;;6.57;6.17;;;;;;;;;;4995597;28;20444;-75
2022/07/31 01:29:19;;;;;;;7.07;6.37;;;;;;;;;;4997128;28;20459;-75
2022/07/31 01:31:48;;;;;;;7.20;6.60;;;;;;;;;;4996783;28;20530;-75
2022/07/31 01:34:20;;;;;;;7.40;6.90;;;;;;;;;;4994394;28;20468;-75
2022/07/31 01:36:50;;;;;;;6.70;6.20;;;;;;;;;;4995191;28;20499;-75
2022/07/31 01:39:18;;;;;;;7.37;6.87;;;;;;;;;;4994831;28;20444;-74
2022/07/31 01:41:47;;;;;;;7.20;6.60;;;;;;;;;;4994661;28;20472;-75
2022/07/31 01:44:16;;;;;;;7.60;6.90;;;;;;;;;;4994087;28;20874;-75
2022/07/31 01:46:44;;;;;;;7.33;6.83;;;;;;;;;;4994847;28;20444;-75
2022/07/31 01:49:11;;;;;;;8.80;7.30;;;;;;;;;;4995112;28;20440;-75
2022/07/31 01:51:39;;;;;;;7.17;6.67;;;;;;;;;;4994677;28;20542;-75
2022/07/31 01:54:06;;;;;;;7.70;7.00;;;;;;;;;;4994227;28;20491;-76
2022/07/31 01:56:34;;;;;;;7.07;6.47;;;;;;;;;;4994431;28;20448;-75
2022/07/31 01:59:02;;;;;;;7.90;7.20;;;;;;;;;;4994122;28;20448;-75
2022/07/31 02:01:31;;;;;;;7.87;7.30;;;;;;;;;;4994647;28;20444;-75
2022/07/31 02:03:58;;;;;;;7.47;6.87;;;;;;;;;;4993806;28;20465;-75
2022/07/31 02:06:26;;;;;;;7.77;7.17;;;;;;;;;;4994328;28;20487;-75
2022/07/31 02:08:54;;;;;;;8.30;7.60;;;;;;;;;;4994103;28;20452;-75
2022/07/31 02:11:21;;;;;;;7.30;6.70;;;;;;;;;;5012812;28;20562;-75
2022/07/31 02:13:49;;;;;;;8.30;7.60;;;;;;;;;;5013344;28;20478;-75
2022/07/31 02:16:17;;;;;;;7.80;7.00;;;;;;;;;;5013701;28;20850;-76
2022/07/31 02:18:46;;;;;;;7.07;6.50;;;;;;;;;;5013483;28;20538;-75
2022/07/31 02:21:13;;;;;;;7.93;7.30;;;;;;;;;;5013359;28;20450;-75
2022/07/31 02:23:41;;;;;;;7.17;6.63;;;;;;;;;;5013303;28;20464;-75
2022/07/31 02:26:08;;;;;;;7.60;7.00;;;;;;;;;;5013703;28;20870;-75
2022/07/31 02:28:36;;;;;;;7.07;6.67;;;;;;;;;;5013896;28;20444;-77
2022/07/31 02:31:03;;;;;;;7.23;6.63;;;;;;;;;;5013407;28;20564;-75
2022/07/31 02:33:31;;;;;;;7.53;6.83;;;;;;;;;;5013157;28;20810;-75
2022/07/31 02:36:00;;;;;;;7.27;6.67;;;;;;;;;;5012753;28;20440;-76
2022/07/31 02:38:27;;;;;;;9.57;8.67;;;;;;;;;;5013275;28;20866;-75
2022/07/31 02:40:58;;;;;;;5.53;5.20;;;;;;;;;;5015109;28;20443;-75
2022/07/31 02:43:25;;;;;;;6.33;5.83;;;;;;;;;;5013357;28;20570;-75
2022/07/31 02:45:52;;;;;;;6.13;5.73;;;;;;;;;;5013732;28;20447;-75
2022/07/31 02:48:20;;;;;;;7.10;6.50;;;;;;;;;;5013341;28;20504;-75
2022/07/31 02:50:47;;;;;;;7.10;6.60;;;;;;;;;;5013048;28;20501;-76
2022/07/31 02:53:16;;;;;;;7.03;6.53;;;;;;;;;;5012640;28;20444;-76
2022/07/31 02:55:44;;;;;;;8.80;6.40;;;;;;;;;;5013272;28;20440;-75
2022/07/31 02:58:11;;;;;;;6.10;5.70;;;;;;;;;;5012856;28;20529;-75
2022/07/31 03:00:38;;;;;;;6.20;5.77;;;;;;;;;;5013116;28;20447;-75
2022/07/31 03:03:05;;;;;;;5.90;5.50;;;;;;;;;;5012753;28;20546;-75
2022/07/31 03:05:32;;;;;;;5.87;5.30;;;;;;;;;;5013007;28;20455;-75
2022/07/31 03:07:59;;;;;;;6.17;5.77;;;;;;;;;;5012524;28;20598;-75
2022/07/31 03:10:27;;;;;;;6.07;5.57;;;;;;;;;;5001588;28;20542;-75
2022/07/31 03:12:55;;;;;;;6.53;6.00;;;;;;;;;;4993374;28;20448;-75
2022/07/31 03:15:26;;;;;;;6.80;6.30;;;;;;;;;;4992854;28;20472;-75
2022/07/31 03:17:54;;;;;;;6.93;5.87;;;;;;;;;;4993147;28;20460;-74
2022/07/31 03:20:21;;;;;;;6.20;5.80;;;;;;;;;;4992848;28;20540;-76
2022/07/31 03:22:48;;;;;;;6.90;6.33;;;;;;;;;;4992650;28;20870;-75
2022/07/31 03:25:16;;;;;;;6.30;5.80;;;;;;;;;;4993533;28;20476;-75
2022/07/31 03:27:44;;;;;;;5.97;5.57;;;;;;;;;;4993552;28;21021;-76
2022/07/31 03:30:17;;;;;;;6.67;6.07;;;;;;;;;;4993468;28;20452;-75
2022/07/31 03:32:44;;;;;;;6.00;5.60;;;;;;;;;;4992582;28;20482;-75
2022/07/31 03:35:11;;;;;;;6.70;6.20;;;;;;;;;;4992701;28;20464;-75
2022/07/31 03:37:38;;;;;;;5.90;5.50;;;;;;;;;;4992394;28;20980;-76
2022/07/31 03:40:05;;;;;;;7.03;6.37;;;;;;;;;;4992796;28;20448;-74
2022/07/31 03:42:32;;;;;;;5.73;5.43;;;;;;;;;;4992369;28;20944;-76
2022/07/31 03:45:01;;;;;;;6.57;5.80;;;;;;;;;;4993213;28;20468;-75
2022/07/31 03:47:29;;;;;;;5.87;5.47;;;;;;;;;;4996200;28;20483;-74
2022/07/31 03:49:56;;;;;;;5.73;5.23;;;;;;;;;;5000297;28;20458;-75
2022/07/31 03:52:23;;;;;;;6.20;5.70;;;;;;;;;;4996910;28;20528;-74
2022/07/31 03:54:50;;;;;;;5.83;5.43;;;;;;;;;;4992272;28;20510;-75
2022/07/31 03:57:18;;;;;;;6.90;6.00;;;;;;;;;;4992553;28;20456;-76
2022/07/31 03:59:46;;;;;;;6.40;5.83;;;;;;;;;;4992560;28;20451;-76
2022/07/31 04:02:15;;;;;;;6.90;6.30;;;;;;;;;;4992536;28;20451;-76
2022/07/31 04:04:43;;;;;;;6.57;5.97;;;;;;;;;;4992259;28;20460;-75
2022/07/31 04:07:10;;;;;;;11.10;6.40;;;;;;;;;;4992375;28;20588;-75
2022/07/31 04:09:38;;;;;;;7.40;6.70;;;;;;;;;;4997100;28;20531;-75
2022/07/31 04:12:05;;;;;;;7.67;6.93;;;;;;;;;;5012034;28;20470;-75
2022/07/31 04:14:32;;;;;;;8.30;7.43;;;;;;;;;;5010561;28;20486;-75
2022/07/31 04:16:59;;;;;;;8.67;7.97;;;;;;;;;;5026898;28;20510;-76
2022/07/31 04:19:29;;;;;;;8.27;7.57;;;;;;;;;;5016353;28;20489;-75
2022/07/31 04:21:56;;;;;;;6.60;6.20;;;;;;;;;;5011876;28;20467;-75
2022/07/31 04:24:24;;;;;;;7.70;7.17;;;;;;;;;;5011233;28;20514;-75
2022/07/31 04:26:51;;;;;;;7.50;7.00;;;;;;;;;;5011334;28;20444;-75
2022/07/31 04:29:18;;;;;;;7.73;7.03;;;;;;;;;;5011595;28;20506;-76
2022/07/31 04:31:45;;;;;;;7.63;7.00;;;;;;;;;;5011817;28;20554;-76
2022/07/31 04:34:13;;;;;;;7.00;6.50;;;;;;;;;;5011170;28;20466;-75
2022/07/31 04:36:41;;;;;;;8.40;7.60;;;;;;;;;;5015836;28;20439;-75
2022/07/31 04:39:08;;;;;;;8.20;7.70;;;;;;;;;;5024400;28;20818;-75
2022/07/31 04:41:35;;;;;;;7.37;6.80;;;;;;;;;;5024347;28;20443;-76
2022/07/31 04:44:02;;;;;;;7.10;6.70;;;;;;;;;;5014812;28;20454;-75
2022/07/31 04:46:29;;;;;;;7.43;6.13;;;;;;;;;;5016504;28;20436;-75
2022/07/31 04:48:56;;;;;;;7.30;6.80;;;;;;;;;;5015712;28;20443;-75
2022/07/31 04:51:23;;;;;;;6.47;6.07;;;;;;;;;;5015239;28;20540;-75
2022/07/31 04:53:52;;;;;;;6.57;6.07;;;;;;;;;;5015462;28;20467;-75
2022/07/31 04:56:36;;;;;;;5.93;5.43;;;;;;;;;;5015358;28;20443;-75
2022/07/31 04:59:04;;;;;;;6.17;5.67;;;;;;;;;;5012144;28;20454;-75
2022/07/31 05:01:31;;;;;;;5.80;5.40;;;;;;;;;;5015237;28;20443;-76
2022/07/31 05:03:58;;;;;;;6.47;6.07;;;;;;;;;;5014805;28;20820;-75
2022/07/31 05:06:33;;;;;;;7.30;6.70;;;;;;;;;;5014953;28;20450;-75
2022/07/31 05:09:01;;;;;;;7.13;6.53;;;;;;;;;;5016315;28;20573;-76
2022/07/31 05:11:28;;;;;;;6.73;6.23;;;;;;;;;;4997454;28;20559;-75
2022/07/31 05:13:57;;;;;;;6.13;5.63;;;;;;;;;;4996440;28;20480;-76
2022/07/31 05:16:24;;;;;;;6.90;6.33;;;;;;;;;;4996747;28;20448;-75
2022/07/31 05:18:51;;;;;;;5.73;5.33;;;;;;;;;;4996588;28;20490;-75
2022/07/31 05:21:18;;;;;;;6.43;5.87;;;;;;;;;;4996397;28;20932;-75
2022/07/31 05:23:46;;;;;;;6.67;6.17;;;;;;;;;;4996535;28;20467;-75
2022/07/31 05:26:14;;;;;;;6.77;6.17;;;;;;;;;;4996644;28;20494;-75
2022/07/31 05:28:42;;;;;;;6.90;6.20;;;;;;;;;;4996249;28;20452;-76
2022/07/31 05:31:09;;;;;;;6.43;5.87;;;;;;;;;;4996052;28;20513;-74
2022/07/31 05:33:37;;;;;;;6.70;6.20;;;;;;;;;;4995452;28;20818;-75
2022/07/31 05:36:04;;;;;;;6.17;5.77;;;;;;;;;;4995605;28;20812;-75
2022/07/31 05:38:31;;;;;;;6.10;5.70;;;;;;;;;;4995623;28;20459;-76
2022/07/31 05:40:58;;;;;;;5.87;5.40;;;;;;;;;;4995423;28;20964;-76
2022/07/31 05:43:27;;;;;;;6.47;6.07;;;;;;;;;;4994832;28;20463;-76
2022/07/31 05:45:54;;;;;;;6.00;5.50;;;;;;;;;;4995073;28;20487;-75
2022/07/31 05:48:21;;;;;;;6.10;5.70;;;;;;;;;;4994815;28;20440;-75
2022/07/31 05:50:49;;;;;;;5.90;5.60;;;;;;;;;;4994909;28;20532;-75
2022/07/31 05:53:16;;;;;;;5.63;5.13;;;;;;;;;;4994407;28;20499;-74
2022/07/31 05:55:43;;;;;;;5.63;5.23;;;;;;;;;;4994887;28;20502;-75
2022/07/31 05:58:10;;;;;;;6.30;5.80;;;;;;;;;;4994631;28;20813;-76
2022/07/31 06:00:39;;;;;;;6.50;5.90;;;;;;;;;;4995188;28;20448;-75
2022/07/31 06:03:06;;;;;;;13.60;12.53;;;;;;;;;;4994226;28;20678;-75
2022/07/31 06:05:33;;;;;;;12.20;11.30;;;;;;;;;;4994511;28;20479;-75
2022/07/31 06:08:00;;;;;;;7.67;7.17;;;;;;;;;;4994549;28;20452;-75
2022/07/31 06:10:28;;;;;;;7.73;7.17;;;;;;;;;;5005263;28;20447;-75
2022/07/31 06:12:55;;;;;;;7.27;6.53;;;;;;;;;;5014656;28;20479;-74
2022/07/31 06:15:22;;;;;;;6.63;6.23;;;;;;;;;;5015684;28;20463;-76
2022/07/31 06:17:50;;;;;;;6.30;5.90;;;;;;;;;;5016173;28;20939;-74
2022/07/31 06:20:17;;;;;;;7.27;6.50;;;;;;;;;;5035286;28;20435;-75
2022/07/31 06:22:44;;;;;;;6.33;5.83;;;;;;;;;;5033089;28;20440;-76
2022/07/31 06:25:12;;;;;;;7.20;6.70;;;;;;;;;;5016527;28;20870;-75
2022/07/31 06:27:40;;;;;;;6.57;5.97;;;;;;;;;;5014477;28;20495;-75
2022/07/31 06:30:08;;;;;;;6.60;6.10;;;;;;;;;;5013919;28;20493;-75
2022/07/31 06:32:36;;;;;;;7.60;7.00;;;;;;;;;;5013425;28;20541;-75
2022/07/31 06:35:04;;;;;;;6.60;6.10;;;;;;;;;;5013992;28;20463;-75
2022/07/31 06:37:31;;;;;;;6.67;6.07;;;;;;;;;;5014157;28;20451;-76
2022/07/31 06:39:59;;;;;;;8.17;5.90;;;;;;;;;;5013900;28;20447;-75
2022/07/31 06:42:26;;;;;;;6.40;5.90;;;;;;;;;;5013199;28;20523;-75
2022/07/31 06:44:54;;;;;;;6.20;5.80;;;;;;;;;;5013227;28;20832;-75
2022/07/31 06:47:23;;;;;;;6.30;5.80;;;;;;;;;;5013484;28;20463;-77
2022/07/31 06:49:50;;;;;;;9.07;6.50;;;;;;;;;;5013381;28;20443;-75
2022/07/31 06:52:19;;;;;;;6.60;6.20;;;;;;;;;;5013221;28;20479;-75
2022/07/31 06:54:46;;;;;;;6.00;5.60;;;;;;;;;;5012793;28;20570;-75
2022/07/31 06:57:13;;;;;;;6.50;6.00;;;;;;;;;;5013388;28;20509;-76
2022/07/31 06:59:41;;;;;;;6.23;5.70;;;;;;;;;;5013716;28;20443;-76
2022/07/31 07:02:08;;;;;;;5.43;5.13;;;;;;;;;;5013201;28;20867;-75
2022/07/31 07:04:35;;;;;;;6.60;5.23;;;;;;;;;;5012794;28;20470;-75
2022/07/31 07:07:02;;;;;;;6.93;6.23;;;;;;;;;;5013070;28;20537;-75
2022/07/31 07:09:30;;;;;;;6.47;5.80;;;;;;;;;;5009299;28;20928;-75
2022/07/31 07:11:57;;;;;;;5.90;5.60;;;;;;;;;;4997552;28;20492;-75
2022/07/31 07:14:24;;;;;;;7.73;5.67;;;;;;;;;;5014036;28;20470;-76
2022/07/31 07:16:51;;;;;;;5.37;5.03;;;;;;;;;;5013438;28;20440;-75
2022/07/31 07:19:18;;;;;;;6.07;5.57;;;;;;;;;;5013852;28;20447;-75
2022/07/31 07:21:45;;;;;;;6.33;5.93;;;;;;;;;;5011756;28;20498;-75
2022/07/31 07:24:13;;;;;;;6.27;5.77;;;;;;;;;;5012311;28;20848;-74
2022/07/31 07:26:41;;;;;;;5.80;5.40;;;;;;;;;;5018545;28;20444;-75
2022/07/31 07:29:09;;;;;;;6.10;5.70;;;;;;;;;;5015099;28;20436;-75
2022/07/31 07:31:36;;;;;;;6.03;5.50;;;;;;;;;;5012081;28;20450;-76
2022/07/31 07:34:05;;;;;;;5.23;4.90;;;;;;;;;;5011423;28;20467;-74
2022/07/31 07:36:32;;;;;;;5.93;5.43;;;;;;;;;;5011472;28;20462;-75
2022/07/31 07:38:59;;;;;;;6.00;5.60;;;;;;;;;;5011416;28;20998;-75
2022/07/31 07:41:26;;;;;;;5.80;5.30;;;;;;;;;;5011989;28;20439;-74
2022/07/31 07:43:55;;;;;;;5.47;5.07;;;;;;;;;;5011988;28;20471;-75
2022/07/31 07:46:22;;;;;;;5.10;4.80;;;;;;;;;;5015011;28;20459;-75
2022/07/31 07:48:50;;;;;;;5.27;4.80;;;;;;;;;;5028610;28;20498;-75
2022/07/31 07:51:17;;;;;;;6.47;5.97;;;;;;;;;;5022215;28;20922;-75
2022/07/31 07:53:44;;;;;;;5.60;5.20;;;;;;;;;;5010710;28;20491;-75
2022/07/31 07:56:11;;;;;;;4.90;4.60;;;;;;;;;;5011665;28;20443;-75
2022/07/31 07:58:38;;;;;;;4.57;4.30;;;;;;;;;;5011177;28;20446;-74
2022/07/31 08:01:07;;;;;;;5.60;5.10;;;;;;;;;;5010748;28;20501;-75
2022/07/31 08:03:34;;;;;;;5.37;5.07;;;;;;;;;;5010617;28;21029;-74
2022/07/31 08:06:01;;;;;;;5.07;4.63;;;;;;;;;;5011149;28;20450;-74
2022/07/31 08:08:28;;;;;;;5.73;5.37;;;;;;;;;;5010936;28;20443;-74
2022/07/31 08:10:55;;;;;;;5.50;5.00;;;;;;;;;;4995526;28;20526;-74
2022/07/31 08:13:23;;;;;;;4.87;4.47;;;;;;;;;;4997976;28;20574;-75
2022/07/31 08:15:50;;;;;;;5.90;5.50;;;;;;;;;;5011632;28;20952;-74
2022/07/31 08:18:18;;;;;;;7.07;5.50;;;;;;;;;;5011674;28;20448;-74
2022/07/31 08:20:45;;;;;;;5.30;4.90;;;;;;;;;;5012414;28;20501;-74
2022/07/31 08:23:12;;;;;;;4.80;4.40;;;;;;;;;;5012165;28;20829;-75
2022/07/31 08:25:39;;;;;;;5.37;5.07;;;;;;;;;;5011785;28;20498;-74
2022/07/31 08:28:06;;;;;;;4.80;4.50;;;;;;;;;;5012261;28;20864;-75
2022/07/31 08:30:34;;;;;;;5.97;5.47;;;;;;;;;;5011922;28;20493;-75
2022/07/31 08:33:01;;;;;;;4.80;4.50;;;;;;;;;;5012636;28;20519;-75
2022/07/31 08:35:30;;;;;;;7.13;5.27;;;;;;;;;;5017598;28;20463;-75
2022/07/31 08:37:57;;;;;;;5.57;5.00;;;;;;;;;;5018386;28;20498;-74
2022/07/31 08:40:25;;;;;;;6.73;5.30;;;;;;;;;;5018203;28;20439;-75
2022/07/31 08:42:52;;;;;;;6.13;5.20;;;;;;;;;;5017632;28;20467;-74
2022/07/31 08:45:19;;;;;;;4.80;4.40;;;;;;;;;;5017801;28;21045;-75
2022/07/31 08:47:47;;;;;;;7.37;4.80;;;;;;;;;;5017984;28;20442;-75
2022/07/31 08:50:15;;;;;;;5.07;4.70;;;;;;;;;;5017417;28;20452;-76
2022/07/31 08:52:44;;;;;;;4.40;4.20;;;;;;;;;;5014589;28;20471;-74
2022/07/31 08:55:11;;;;;;;6.20;5.07;;;;;;;;;;5019400;28;20467;-75
2022/07/31 08:57:39;;;;;;;6.87;4.70;;;;;;;;;;5018775;28;20858;-75
2022/07/31 09:00:07;;;;;;;5.37;4.87;;;;;;;;;;5018574;28;20489;-75
2022/07/31 09:02:34;;;;;;;4.60;4.03;;;;;;;;;;5018075;28;20482;-75
2022/07/31 09:05:01;;;;;;;4.40;4.00;;;;;;;;;;5018028;28;20528;-75
2022/07/31 09:07:28;;;;;;;4.90;4.40;;;;;;;;;;5017902;28;20443;-75
2022/07/31 09:09:56;;;;;;;4.07;3.87;;;;;;;;;;5011515;28;20444;-76
2022/07/31 09:12:31;;;;;;;4.37;3.97;;;;;;;;;;5000249;28;20484;-75
2022/07/31 09:14:58;;;;;;;4.90;4.60;;;;;;;;;;5001077;28;20526;-76
2022/07/31 09:17:32;;;;;;;3.80;3.60;;;;;;;;;;4999365;28;20440;-76
2022/07/31 09:19:59;;;;;;;4.10;3.90;;;;;;;;;;4998163;28;20739;-75
2022/07/31 09:22:27;;;;;;;4.00;3.70;;;;;;;;;;4998404;28;20562;-75
2022/07/31 09:24:54;;;;;;;4.30;4.00;;;;;;;;;;4997763;28;20623;-75
2022/07/31 09:27:28;;;;;;;3.37;3.10;;;;;;;;;;4998265;28;20944;-74
2022/07/31 09:29:56;;;;;;;4.30;3.37;;;;;;;;;;4998026;28;20478;-76
2022/07/31 09:32:24;;;;;;;3.57;3.27;;;;;;;;;;4998255;28;20555;-76
2022/07/31 09:34:51;;;;;;;3.57;3.37;;;;;;;;;;4997780;28;20480;-75
2022/07/31 09:37:19;;;;;;;3.30;3.10;;;;;;;;;;4998394;28;20455;-77
2022/07/31 09:39:50;;;;;;;3.90;2.90;;;;;;;;;;4998397;28;20440;-75
2022/07/31 09:42:18;;;;;;;3.20;3.00;;;;;;;;;;4999205;28;20444;-76
2022/07/31 09:44:48;;;;;;;3.50;3.30;;;;;;;;;;4998695;28;20500;-75
2022/07/31 09:47:22;;;;;;;3.00;2.80;;;;;;;;;;5010557;28;20944;-75
2022/07/31 09:49:53;;;;;;;3.37;3.17;;;;;;;;;;5011413;28;20514;-75
2022/07/31 09:52:20;;;;;;;2.90;2.70;;;;;;;;;;5003056;28;20445;-75
2022/07/31 09:54:47;;;;;;;4.63;2.77;;;;;;;;;;5014766;28;20486;-75
2022/07/31 09:57:15;;;;;;;3.20;2.90;;;;;;;;;;5014616;28;20435;-76
2022/07/31 09:59:43;;;;;;;2.93;2.73;;;;;;;;;;5015900;28;20458;-76
2022/07/31 10:02:14;;;;;;;3.47;3.17;;;;;;;;;;5015970;28;20542;-74
2022/07/31 10:04:42;;;;;;;2.90;2.70;;;;;;;;;;5013862;28;20501;-75
2022/07/31 10:07:09;;;;;;;3.00;2.80;;;;;;;;;;5015109;28;20454;-75
2022/07/31 10:09:39;;;;;;;2.40;2.30;;;;;;;;;;5013868;28;20482;-74
2022/07/31 10:12:07;;;;;;;2.60;2.50;;;;;;;;;;5010870;28;20997;-74
2022/07/31 10:14:38;;;;;;;3.00;2.80;;;;;;;;;;5013712;28;20506;-74
2022/07/31 10:17:06;;;;;;;3.10;2.90;;;;;;;;;;5020147;28;21053;-75
2022/07/31 10:19:36;;;;;;;3.50;2.80;;;;;;;;;;5026241;28;20455;-75
2022/07/31 10:22:04;;;;;;;3.07;2.80;;;;;;;;;;5027373;28;20423;-75
2022/07/31 10:24:32;;;;;;;2.77;2.57;;;;;;;;;;5029925;28;20443;-74
2022/07/31 10:26:59;;;;;;;4.53;3.13;;;;;;;;;;5033317;28;20859;-74
2022/07/31 10:29:27;;;;;;;3.63;2.90;;;;;;;;;;5032597;28;20449;-74
2022/07/31 10:31:54;;;;;;;3.43;2.53;;;;;;;;;;5029327;28;20474;-74
2022/07/31 10:34:21;;;;;;;2.57;2.40;;;;;;;;;;5032773;28;20483;-76
2022/07/31 10:36:52;;;;;;;2.53;2.33;;;;;;;;;;5032506;28;20924;-75
2022/07/31 10:39:23;;;;;;;2.50;2.30;;;;;;;;;;5021560;28;20443;-75
2022/07/31 10:41:55;;;;;;;2.27;2.07;;;;;;;;;;5021734;28;20426;-76
2022/07/31 10:44:32;;;;;;;3.10;2.20;;;;;;;;;;5016347;28;21006;-76
2022/07/31 10:46:59;;;;;;;1.83;1.70;;;;;;;;;;5016780;28;20508;-76
2022/07/31 10:49:39;;;;;;;2.90;2.10;;;;;;;;;;5017651;28;20474;-75
2022/07/31 10:52:07;;;;;;;2.20;2.00;;;;;;;;;;5018026;28;20530;-74
2022/07/31 10:54:45;;;;;;;4.53;2.20;;;;;;;;;;5013754;28;20483;-74
2022/07/31 10:57:21;;;;;;;2.53;2.33;;;;;;;;;;5014531;28;20481;-75
2022/07/31 10:59:48;;;;;;;2.33;2.10;;;;;;;;;;5021033;28;20463;-75
2022/07/31 11:02:27;;;;;;;2.30;2.20;;;;;;;;;;5022750;28;20439;-75
2022/07/31 11:04:54;;;;;;;2.10;1.97;;;;;;;;;;5018269;28;20463;-75
2022/07/31 11:07:22;;;;;;;2.63;2.43;;;;;;;;;;5017227;28;20443;-75
2022/07/31 11:09:51;;;;;;;2.47;2.27;;;;;;;;;;5016937;28;20909;-75
2022/07/31 11:12:19;;;;;;;2.20;2.10;;;;;;;;;;5016457;28;20828;-75
2022/07/31 11:14:46;;;;;;;2.00;1.90;;;;;;;;;;5015230;28;20490;-76
2022/07/31 11:17:13;;;;;;;2.13;2.03;;;;;;;;;;5015863;28;20506;-76
2022/07/31 11:19:40;;;;;;;2.30;2.20;;;;;;;;;;5017968;28;20509;-75
2022/07/31 11:22:11;;;;;;;3.50;3.20;;;;;;;;;;5017883;28;20439;-75
2022/07/31 11:24:39;;;;;;;3.30;3.00;;;;;;;;;;5020995;28;20490;-74
2022/07/31 11:27:07;;;;;;;3.00;2.80;;;;;;;;;;5024984;28;20476;-75
2022/07/31 11:29:35;;;;;;;2.80;2.60;;;;;;;;;;5017834;28;20447;-75
2022/07/31 11:32:13;;;;;;;2.50;2.40;;;;;;;;;;5018568;28;20526;-74
2022/07/31 11:34:45;;;;;;;2.37;2.27;;;;;;;;;;5016400;28;20551;-74
2022/07/31 11:37:16;;;;;;;3.80;2.50;;;;;;;;;;5017423;28;21119;-75
2022/07/31 11:39:45;;;;;;;3.03;2.50;;;;;;;;;;5017102;28;20428;-75
2022/07/31 11:42:12;;;;;;;2.63;2.53;;;;;;;;;;5016046;28;20455;-74
2022/07/31 11:44:40;;;;;;;2.20;2.10;;;;;;;;;;5016312;28;20463;-76
2022/07/31 11:47:07;;;;;;;2.53;2.40;;;;;;;;;;5016970;28;20892;-75
2022/07/31 11:49:36;;;;;;;2.47;2.30;;;;;;;;;;5024769;28;20439;-74
2022/07/31 11:52:03;;;;;;;2.30;2.10;;;;;;;;;;5022740;28;20447;-76
2022/07/31 11:54:30;;;;;;;2.83;2.63;;;;;;;;;;5022553;28;20494;-76
2022/07/31 11:56:58;;;;;;;2.23;2.10;;;;;;;;;;5019640;28;20502;-75
2022/07/31 11:59:29;;;;;;;2.70;2.40;;;;;;;;;;5028422;28;20466;-77
2022/07/31 12:02:02;;;;;;;2.17;2.07;;;;;;;;;;5029210;28;20435;-76
2022/07/31 12:04:30;;;;;;;3.17;2.27;;;;;;;;;;5024335;28;20464;-76
2022/07/31 12:06:57;;;;;;;1.70;1.60;;;;;;;;;;5019132;28;20501;-75
2022/07/31 12:09:24;;;;;;;2.03;1.93;;;;;;;;;;5018507;28;20447;-76
2022/07/31 12:11:51;;;;;;;1.87;1.77;;;;;;;;;;5019948;28;20443;-75
2022/07/31 12:14:28;;;;;;;2.87;2.30;;;;;;;;;;5016799;28;20549;-76
2022/07/31 12:16:55;;;;;;;2.13;1.93;;;;;;;;;;5019796;28;20427;-75
2022/07/31 12:19:26;;;;;;;2.77;2.60;;;;;;;;;;5016400;28;20447;-75
2022/07/31 12:21:53;;;;;;;2.90;2.70;;;;;;;;;;5019335;28;20458;-76
2022/07/31 12:24:20;;;;;;;4.20;2.30;;;;;;;;;;5017930;28;20490;-76
2022/07/31 12:26:50;;;;;;;3.43;2.20;;;;;;;;;;5011755;28;20981;-75
2022/07/31 12:29:17;;;;;;;2.70;2.03;;;;;;;;;;4998767;28;20428;-75
2022/07/31 12:31:46;;;;;;;2.60;2.40;;;;;;;;;;4995392;28;20432;-75
2022/07/31 12:34:13;;;;;;;2.70;2.50;;;;;;;;;;5004062;28;20495;-74
2022/07/31 12:36:40;;;;;;;2.80;2.03;;;;;;;;;;5016610;28;20449;-76
2022/07/31 12:39:07;;;;;;;2.27;2.17;;;;;;;;;;5017534;28;20460;-75
2022/07/31 12:41:41;;;;;;;2.10;2.00;;;;;;;;;;5015582;28;20429;-76
2022/07/31 12:44:10;;;;;;;2.30;2.20;;;;;;;;;;5017520;28;20468;-77
2022/07/31 12:46:37;;;;;;;4.40;2.40;;;;;;;;;;5017307;28;20421;-76
2022/07/31 12:49:07;;;;;;;2.13;2.03;;;;;;;;;;5017427;28;20475;-77
2022/07/31 12:51:34;;;;;;;1.93;1.83;;;;;;;;;;5012969;28;20448;-76
2022/07/31 12:54:03;;;;;;;2.60;2.23;;;;;;;;;;5004008;28;20496;-77
2022/07/31 12:56:30;;;;;;;2.77;2.43;;;;;;;;;;5012699;28;20441;-76
2022/07/31 12:58:57;;;;;;;2.83;2.20;;;;;;;;;;5004500;28;20447;-77
2022/07/31 13:01:24;;;;;;;5.27;2.60;;;;;;;;;;5013073;28;20437;-76
2022/07/31 13:03:51;;;;;;;2.80;2.60;;;;;;;;;;5015145;28;20460;-76
2022/07/31 13:06:19;;;;;;;2.60;2.43;;;;;;;;;;5011982;28;20450;-76
2022/07/31 13:08:46;;;;;;;4.37;2.27;;;;;;;;;;5015100;28;20440;-76
2022/07/31 13:11:13;;;;;;;4.53;2.17;;;;;;;;;;5005731;28;20440;-75
2022/07/31 13:13:41;;;;;;;2.30;2.20;;;;;;;;;;5002366;28;20482;-77
2022/07/31 13:16:08;;;;;;;3.97;2.50;;;;;;;;;;5018154;28;20443;-75
2022/07/31 13:18:36;;;;;;;3.67;2.40;;;;;;;;;;5022600;28;20436;-77
2022/07/31 13:21:03;;;;;;;2.43;2.33;;;;;;;;;;5018742;28;20478;-76
2022/07/31 13:23:32;;;;;;;2.47;2.27;;;;;;;;;;5018201;28;20459;-77
2022/07/31 13:25:59;;;;;;;2.40;2.20;;;;;;;;;;5017400;28;20443;-76
2022/07/31 13:28:26;;;;;;;2.20;2.10;;;;;;;;;;5016412;28;20432;-75
2022/07/31 13:30:53;;;;;;;1.97;1.87;;;;;;;;;;5006458;28;20454;-76
2022/07/31 13:33:20;;;;;;;2.10;2.00;;;;;;;;;;4999742;28;20440;-77
2022/07/31 13:35:47;;;;;;;7.50;7.00;;;;;;;;;;5000395;28;20971;-77
2022/07/31 13:38:14;;;;;;;3.00;2.10;;;;;;;;;;5004110;28;20491;-78
2022/07/31 13:43:28;;;;;;;3.07;2.57;;;;;;;;;;5010903;28;20518;-76
2022/07/31 13:45:55;;;;;;;3.90;2.00;;;;;;;;;;5003520;28;20452;-75
2022/07/31 13:48:22;;;;;;;2.80;2.60;;;;;;;;;;5008853;28;20416;-76
2022/07/31 13:50:49;;;;;;;4.50;2.47;;;;;;;;;;5010595;28;20499;-76
2022/07/31 13:53:16;;;;;;;2.60;2.40;;;;;;;;;;5016594;28;20439;-76
2022/07/31 13:55:44;;;;;;;2.30;1.80;;;;;;;;;;5016224;28;20483;-75
2022/07/31 13:58:11;;;;;;;3.00;2.50;;;;;;;;;;5011716;28;20444;-77
2022/07/31 14:00:39;;;;;;;2.13;2.00;;;;;;;;;;5008352;28;20444;-77
2022/07/31 14:03:06;;;;;;;2.03;1.93;;;;;;;;;;5016193;28;20467;-76
2022/07/31 14:05:33;;;;;;;2.07;1.97;;;;;;;;;;5007383;28;20475;-76
2022/07/31 14:08:00;;;;;;;2.17;2.00;;;;;;;;;;5009180;28;20440;-75
2022/07/31 14:10:27;;;;;;;1.80;1.70;;;;;;;;;;5007255;28;20494;-78
2022/07/31 14:12:55;;;;;;;2.30;2.20;;;;;;;;;;5002539;28;20440;-75
2022/07/31 14:15:22;;;;;;;1.60;1.60;;;;;;;;;;5004607;28;20666;-76
2022/07/31 14:17:49;;;;;;;2.03;1.83;;;;;;;;;;5005297;28;20440;-75
2022/07/31 14:20:17;;;;;;;3.30;1.93;;;;;;;;;;5004979;28;20472;-75
2022/07/31 14:22:44;;;;;;;1.77;1.67;;;;;;;;;;5002256;28;20499;-75
2022/07/31 14:25:11;;;;;;;2.60;1.80;;;;;;;;;;5009574;28;20507;-76
2022/07/31 14:27:39;;;;;;;2.17;2.07;;;;;;;;;;5017299;28;20440;-76
2022/07/31 14:30:08;;;;;;;3.27;1.73;;;;;;;;;;5018089;28;20459;-77
2022/07/31 14:32:35;;;;;;;2.30;1.90;;;;;;;;;;5015877;28;20729;-78
2022/07/31 14:35:02;;;;;;;2.30;1.83;;;;;;;;;;5017391;28;21113;-77
2022/07/31 14:37:29;;;;;;;1.60;1.50;;;;;;;;;;5017396;28;20429;-77
2022/07/31 14:39:56;;;;;;;1.97;1.87;;;;;;;;;;5017502;28;20437;-76
2022/07/31 14:42:23;;;;;;;3.53;2.20;;;;;;;;;;5015318;28;20444;-77
2022/07/31 14:44:50;;;;;;;1.93;1.70;;;;;;;;;;5009426;28;20464;-76
2022/07/31 14:47:19;;;;;;;2.30;2.00;;;;;;;;;;5016506;28;20440;-75
2022/07/31 14:49:46;;;;;;;2.17;1.83;;;;;;;;;;5016909;28;20436;-80